Time;durP1;ratioP1;P1;durP2;ratioP2;P2;SDS_P1;SDS_P2;PMS_P1;PMS_P2;Temp;Humidity;BMP_temperature;BMP_pressure;BME280_temperature;BME280_humidity;BME280_pressure;Samples;Min_cycle;Max_cycle;Signal;HPM_P1;HPM_P2
2022/12/16 00:01:10;;;;;;;24.10;15.27;;;-2.20;99.90;;;;;;5077567;28;20032;-74
2022/12/16 00:03:38;;;;;;;25.30;15.60;;;-2.20;99.90;;;;;;5067276;28;20046;-74
2022/12/16 00:06:07;;;;;;;23.17;14.50;;;-2.10;99.90;;;;;;5087656;28;20024;-74
2022/12/16 00:08:36;;;;;;;22.07;14.33;;;-2.10;99.90;;;;;;5085254;28;20032;-74
2022/12/16 00:11:03;;;;;;;26.43;15.03;;;-2.00;99.90;;;;;;5069785;28;20015;-74
2022/12/16 00:13:31;;;;;;;24.13;14.67;;;-2.00;99.90;;;;;;5104623;28;21230;-74
2022/12/16 00:15:58;;;;;;;24.47;17.17;;;-1.90;99.90;;;;;;5069893;28;20451;-74
2022/12/16 00:18:25;;;;;;;22.57;15.13;;;-1.90;99.90;;;;;;5066081;28;20035;-74
2022/12/16 00:20:53;;;;;;;29.10;18.30;;;-1.80;99.90;;;;;;5052040;28;20036;-75
2022/12/16 00:23:21;;;;;;;30.80;17.83;;;-1.80;99.90;;;;;;5069656;28;20035;-75
2022/12/16 00:25:48;;;;;;;27.97;18.67;;;-1.80;99.90;;;;;;5085308;28;20028;-75
2022/12/16 00:28:16;;;;;;;23.80;16.57;;;-1.70;99.90;;;;;;5063884;28;20020;-74
2022/12/16 00:30:44;;;;;;;24.87;17.37;;;-1.70;99.90;;;;;;5053706;28;20490;-74
2022/12/16 00:33:10;;;;;;;26.87;17.47;;;-1.60;99.90;;;;;;5069883;28;20036;-74
2022/12/16 00:35:37;;;;;;;29.57;18.43;;;-1.60;99.90;;;;;;5069959;28;20386;-74
2022/12/16 00:38:03;;;;;;;29.70;18.80;;;-1.60;99.90;;;;;;5083268;28;20039;-74
2022/12/16 00:40:29;;;;;;;33.53;20.67;;;-1.50;99.90;;;;;;5069955;28;20051;-74
2022/12/16 00:42:56;;;;;;;31.30;20.30;;;-1.50;99.90;;;;;;5084873;28;20048;-74
2022/12/16 00:45:22;;;;;;;31.57;20.03;;;-1.40;99.90;;;;;;5067402;28;20032;-74
2022/12/16 00:47:49;;;;;;;27.40;17.37;;;-1.40;99.90;;;;;;5099905;28;20040;-73
2022/12/16 00:50:16;;;;;;;30.73;19.07;;;-1.40;99.90;;;;;;5086851;28;20016;-74
2022/12/16 00:52:43;;;;;;;30.23;19.10;;;-1.30;99.90;;;;;;5071053;28;20501;-75
2022/12/16 00:55:09;;;;;;;38.10;22.83;;;-1.30;99.90;;;;;;5089503;28;20493;-75
2022/12/16 00:57:36;;;;;;;34.17;20.97;;;-1.30;99.90;;;;;;5067064;28;20235;-74
2022/12/16 01:00:06;;;;;;;28.70;19.37;;;-1.20;99.90;;;;;;5070700;28;20409;-74
2022/12/16 01:02:32;;;;;;;30.20;19.90;;;-1.20;99.90;;;;;;5053434;28;20059;-74
2022/12/16 01:04:58;;;;;;;35.93;20.67;;;-1.20;99.90;;;;;;5087083;28;20348;-74
2022/12/16 01:07:25;;;;;;;32.70;20.13;;;-1.20;99.90;;;;;;5066191;28;20398;-74
2022/12/16 01:09:51;;;;;;;30.67;20.27;;;-1.20;99.90;;;;;;5070226;28;20028;-74
2022/12/16 01:12:17;;;;;;;27.40;17.00;;;-1.10;99.90;;;;;;5086547;28;20044;-74
2022/12/16 01:14:44;;;;;;;26.00;16.70;;;-1.10;99.90;;;;;;5103630;28;20024;-74
2022/12/16 01:17:10;;;;;;;29.53;18.10;;;-1.10;99.90;;;;;;5084345;28;20055;-74
2022/12/16 01:19:36;;;;;;;27.27;18.67;;;-1.10;99.90;;;;;;5069364;28;20034;-74
2022/12/16 01:22:03;;;;;;;26.43;17.43;;;-1.10;99.90;;;;;;5069072;28;20074;-74
2022/12/16 01:24:29;;;;;;;30.03;19.87;;;-1.00;99.90;;;;;;5069806;28;20036;-74
2022/12/16 01:26:55;;;;;;;30.27;19.90;;;-1.00;99.90;;;;;;5066406;28;20372;-73
2022/12/16 01:29:22;;;;;;;33.37;21.37;;;-0.90;99.90;;;;;;5086643;28;20023;-73
2022/12/16 01:31:48;;;;;;;29.73;19.83;;;-0.90;99.90;;;;;;5069298;28;20050;-74
2022/12/16 01:34:15;;;;;;;27.50;16.70;;;-0.90;99.90;;;;;;5069231;28;20028;-74
2022/12/16 01:36:42;;;;;;;28.73;19.27;;;-0.90;99.90;;;;;;5081154;28;20068;-73
2022/12/16 01:39:09;;;;;;;28.10;18.03;;;-0.80;99.90;;;;;;5085753;28;20020;-73
2022/12/16 01:41:36;;;;;;;24.33;16.93;;;-0.80;99.90;;;;;;5068557;28;20036;-74
2022/12/16 01:44:13;;;;;;;30.30;19.57;;;-0.80;99.90;;;;;;5085959;28;20028;-73
2022/12/16 01:46:42;;;;;;;24.80;16.40;;;-0.80;99.90;;;;;;5062839;28;20032;-73
2022/12/16 01:49:16;;;;;;;26.03;17.43;;;-0.70;99.90;;;;;;5068248;28;20448;-73
2022/12/16 01:51:44;;;;;;;26.93;17.40;;;-0.70;99.90;;;;;;5082355;28;20039;-73
2022/12/16 01:54:23;;;;;;;27.57;18.23;;;-0.70;99.90;;;;;;5068666;28;20028;-74
2022/12/16 01:56:53;;;;;;;28.13;18.93;;;-0.60;99.90;;;;;;5062702;28;21034;-73
2022/12/16 01:59:23;;;;;;;25.57;17.63;;;-0.60;99.90;;;;;;5085748;28;20606;-74
2022/12/16 02:01:49;;;;;;;27.40;17.20;;;-0.60;99.90;;;;;;5086766;28;20679;-73
2022/12/16 02:04:16;;;;;;;26.37;16.70;;;-0.60;99.90;;;;;;5085121;28;20044;-74
2022/12/16 02:06:42;;;;;;;25.43;16.57;;;-0.50;99.90;;;;;;5080773;28;20044;-73
2022/12/16 02:09:10;;;;;;;28.97;19.67;;;-0.50;99.90;;;;;;5068093;28;20031;-74
2022/12/16 02:11:58;;;;;;;27.57;19.03;;;-0.50;99.90;;;;;;5068463;28;20062;-74
2022/12/16 02:14:30;;;;;;;25.93;17.70;;;-0.50;99.90;;;;;;5068049;28;20410;-74
2022/12/16 02:17:10;;;;;;;28.27;19.63;;;-0.50;99.90;;;;;;5063189;28;20047;-73
2022/12/16 02:20:08;;;;;;;28.03;18.43;;;-0.40;99.90;;;;;;5067879;28;20052;-73
2022/12/16 02:22:37;;;;;;;27.47;18.17;;;-0.40;99.90;;;;;;5052885;28;20402;-74
2022/12/16 02:25:32;;;;;;;29.57;18.80;;;-0.40;99.90;;;;;;5084692;28;20120;-73
2022/12/16 02:28:01;;;;;;;29.07;19.23;;;-0.40;99.90;;;;;;5062433;28;20036;-73
2022/12/16 02:30:52;;;;;;;30.50;20.20;;;-0.40;99.90;;;;;;5065511;28;20028;-73
2022/12/16 02:33:50;;;;;;;30.97;19.87;;;-0.30;99.90;;;;;;5085329;28;20044;-73
2022/12/16 02:36:32;;;;;;;28.13;19.40;;;-0.30;99.90;;;;;;5084906;28;20036;-73
2022/12/16 02:39:07;;;;;;;31.98;21.38;;;-0.30;99.90;;;;;;5065996;28;20020;-73
2022/12/16 02:41:56;;;;;;;31.67;20.57;;;-0.30;99.90;;;;;;5084609;28;20058;-73
2022/12/16 02:44:53;;;;;;;30.17;19.97;;;-0.30;99.90;;;;;;5044263;28;20051;-73
2022/12/16 02:47:20;;;;;;;29.87;18.33;;;-0.30;99.90;;;;;;5034543;28;20570;-74
2022/12/16 02:49:52;;;;;;;29.60;19.03;;;-0.30;99.90;;;;;;5049416;28;20016;-74
2022/12/16 02:52:22;;;;;;;26.63;18.75;;;-0.30;99.90;;;;;;5073912;28;20044;-74
2022/12/16 02:54:52;;;;;;;28.47;19.63;;;-0.30;99.90;;;;;;5078497;28;20032;-74
2022/12/16 02:57:39;;;;;;;29.70;19.67;;;-0.20;99.90;;;;;;5070218;28;20055;-73
2022/12/16 03:00:11;;;;;;;29.00;19.67;;;-0.20;99.90;;;;;;5079843;28;20036;-73
2022/12/16 03:02:56;;;;;;;26.42;18.60;;;-0.20;99.90;;;;;;5059220;28;20020;-73
2022/12/16 03:05:28;;;;;;;28.07;20.27;;;-0.20;99.90;;;;;;5076416;28;20482;-73
2022/12/16 03:07:59;;;;;;;30.65;19.25;;;-0.20;99.90;;;;;;5090150;28;20040;-73
2022/12/16 03:10:30;;;;;;;36.00;22.70;;;-0.20;99.90;;;;;;5041890;28;20466;-73
2022/12/16 03:13:00;;;;;;;32.43;22.23;;;-0.20;99.90;;;;;;5077701;28;20031;-73
2022/12/16 03:15:31;;;;;;;34.90;22.83;;;-0.20;99.90;;;;;;5050794;28;20051;-73
2022/12/16 03:17:59;;;;;;;34.10;21.67;;;-0.20;99.90;;;;;;5060961;28;20032;-73
2022/12/16 03:20:35;;;;;;;32.40;21.07;;;-0.20;99.90;;;;;;5077662;28;20057;-73
2022/12/16 03:23:08;;;;;;;31.50;22.67;;;-0.20;99.90;;;;;;5084587;28;20035;-74
2022/12/16 03:25:39;;;;;;;30.20;21.30;;;-0.20;99.90;;;;;;5083424;28;20346;-73
2022/12/16 03:28:16;;;;;;;32.20;22.80;;;-0.20;99.90;;;;;;5062057;28;20130;-74
2022/12/16 03:30:52;;;;;;;30.00;20.93;;;-0.30;99.90;;;;;;5084788;28;20454;-73
2022/12/16 03:33:23;;;;;;;37.70;24.67;;;-0.20;99.90;;;;;;5085543;28;20044;-74
2022/12/16 03:36:11;;;;;;;33.20;21.07;;;-0.20;99.90;;;;;;5083783;28;20024;-73
2022/12/16 03:38:39;;;;;;;29.90;19.20;;;-0.30;99.90;;;;;;5061918;28;20036;-74
2022/12/16 03:41:07;;;;;;;26.10;16.67;;;-0.30;99.90;;;;;;5083338;28;20406;-74
2022/12/16 03:43:33;;;;;;;35.37;22.10;;;-0.20;99.90;;;;;;5068561;28;20040;-74
2022/12/16 03:46:03;;;;;;;40.67;24.63;;;-0.30;99.90;;;;;;5086122;28;20366;-74
2022/12/16 03:48:29;;;;;;;32.87;22.80;;;-0.30;99.90;;;;;;5061356;28;20397;-74
2022/12/16 03:50:56;;;;;;;31.90;21.60;;;-0.30;99.90;;;;;;5066677;28;20114;-73
2022/12/16 03:53:25;;;;;;;33.57;22.37;;;-0.30;99.90;;;;;;5067243;28;20024;-74
2022/12/16 03:55:55;;;;;;;32.37;20.93;;;-0.30;99.90;;;;;;5082669;28;20040;-74
2022/12/16 03:58:21;;;;;;;40.87;26.27;;;-0.30;99.90;;;;;;5078202;28;20020;-73
2022/12/16 04:00:47;;;;;;;38.23;24.23;;;-0.20;99.90;;;;;;5083330;28;20032;-73
2022/12/16 04:03:14;;;;;;;52.23;29.90;;;-0.30;99.90;;;;;;5067347;28;20040;-74
2022/12/16 04:05:40;;;;;;;47.67;25.63;;;-0.30;99.90;;;;;;5083728;28;20031;-74
2022/12/16 04:08:06;;;;;;;45.10;25.13;;;-0.30;99.90;;;;;;5077882;28;20027;-73
2022/12/16 04:24:33;;;;;;;45.90;26.23;;;-0.30;99.90;;;;;;5084124;28;20055;-74
2022/12/16 04:34:24;;;;;;;39.60;22.27;;;-0.40;99.90;;;;;;5084623;28;20059;-74
